Time;durP1;ratioP1;P1;durP2;ratioP2;P2;SDS_P1;SDS_P2;PMS_P1;PMS_P2;Temp;Humidity;BMP_temperature;BMP_pressure;BME280_temperature;BME280_humidity;BME280_pressure;Samples;Min_cycle;Max_cycle;Signal;HPM_P1;HPM_P2
2022/07/31 00:00:14;;;;;;;0.25;0.25;;;;;;;18.52;100.00;101006.66;5014514;28;20022;-56
2022/07/31 00:02:39;;;;;;;0.40;0.40;;;;;;;18.50;100.00;101016.81;5022681;28;20132;-55
2022/07/31 00:05:05;;;;;;;1.30;0.30;;;;;;;18.49;100.00;101012.50;5020225;28;20391;-57
2022/07/31 00:07:30;;;;;;;0.77;0.40;;;;;;;18.48;100.00;101005.50;5015320;28;20025;-57
2022/07/31 00:09:56;;;;;;;2.20;0.22;;;;;;;18.46;100.00;100999.53;5020033;28;20574;-57
2022/07/31 00:12:21;;;;;;;1.85;0.13;;;;;;;18.46;100.00;101001.41;5024372;28;20040;-55
2022/07/31 00:14:47;;;;;;;0.38;0.38;;;;;;;18.45;100.00;100999.75;5018284;28;20041;-56
2022/07/31 00:17:13;;;;;;;0.35;0.35;;;;;;;18.41;100.00;101004.78;5029251;28;20116;-53
2022/07/31 00:19:38;;;;;;;2.58;0.32;;;;;;;18.41;100.00;100998.59;5023358;28;20175;-57
2022/07/31 00:22:04;;;;;;;0.77;0.35;;;;;;;18.37;100.00;100989.38;5026994;28;20029;-56
2022/07/31 00:24:29;;;;;;;0.57;0.45;;;;;;;18.33;100.00;100996.22;5019787;28;20474;-55
2022/07/31 00:26:55;;;;;;;0.60;0.45;;;;;;;18.30;100.00;100992.13;5019732;28;20028;-58
2022/07/31 00:29:21;;;;;;;1.55;0.50;;;;;;;18.30;100.00;100986.75;5026663;28;20028;-56
2022/07/31 00:31:46;;;;;;;1.63;0.63;;;;;;;18.32;100.00;100995.41;5022958;28;20079;-56
2022/07/31 00:34:11;;;;;;;6.40;0.43;;;;;;;18.36;100.00;101007.34;5023717;28;20035;-54
2022/07/31 00:36:37;;;;;;;1.10;0.20;;;;;;;18.40;100.00;101008.50;5017911;28;20052;-51
2022/07/31 00:39:02;;;;;;;5.45;0.85;;;;;;;18.42;100.00;100995.66;5026060;28;20021;-54
2022/07/31 00:41:48;;;;;;;0.47;0.47;;;;;;;18.44;100.00;100995.44;5013663;28;20031;-56
2022/07/31 00:44:13;;;;;;;0.95;0.30;;;;;;;18.43;100.00;100988.44;5032606;28;20025;-50
2022/07/31 00:46:40;;;;;;;0.65;0.52;;;;;;;18.43;100.00;100983.06;5020222;28;20415;-48
2022/07/31 00:49:08;;;;;;;0.70;0.28;;;;;;;18.42;100.00;100984.13;5023876;28;20385;-54
2022/07/31 00:51:34;;;;;;;1.20;0.55;;;;;;;18.40;100.00;100981.66;5023911;28;20037;-56
2022/07/31 00:54:00;;;;;;;0.85;0.60;;;;;;;18.39;100.00;100974.66;5019520;28;20079;-51
2022/07/31 00:56:25;;;;;;;1.17;0.20;;;;;;;18.40;100.00;100975.47;5021205;28;20061;-54
2022/07/31 00:58:50;;;;;;;0.70;0.22;;;;;;;18.39;100.00;100980.03;5015578;28;20068;-54
2022/07/31 01:01:16;;;;;;;0.35;0.20;;;;;;;18.39;100.00;100976.53;5016548;28;20022;-55
2022/07/31 01:03:41;;;;;;;1.15;0.98;;;;;;;18.39;100.00;100980.03;5024241;28;20040;-57
2022/07/31 01:06:08;;;;;;;0.80;0.17;;;;;;;18.38;100.00;100970.34;5023033;28;20034;-55
2022/07/31 01:08:33;;;;;;;0.25;0.25;;;;;;;18.37;100.00;100971.38;5014371;28;20054;-52
2022/07/31 01:11:08;;;;;;;0.47;0.20;;;;;;;18.35;100.00;100969.97;5022937;28;20049;-56
2022/07/31 01:13:56;;;;;;;0.85;0.30;;;;;;;18.32;100.00;100968.56;5021969;28;20065;-53
2022/07/31 01:16:25;;;;;;;0.10;0.10;;;;;;;18.29;100.00;100969.03;5019303;28;20075;-53
2022/07/31 01:18:54;;;;;;;4.35;1.23;;;;;;;18.28;100.00;100978.16;5027522;28;20033;-51
2022/07/31 01:21:27;;;;;;;1.10;0.10;;;;;;;18.31;100.00;100972.31;5020778;28;20036;-54
2022/07/31 01:24:12;;;;;;;0.00;0.00;;;;;;;18.34;100.00;100965.66;5030836;28;20374;-57
2022/07/31 01:26:44;;;;;;;0.10;0.10;;;;;;;18.35;100.00;100962.72;5028072;28;20100;-57
2022/07/31 01:29:27;;;;;;;1.67;0.20;;;;;;;18.33;100.00;100948.75;5019681;28;20037;-56
2022/07/31 01:32:15;;;;;;;0.15;0.10;;;;;;;18.36;100.00;100948.28;5011402;28;20053;-57
2022/07/31 01:34:50;;;;;;;0.00;0.00;;;;;;;18.36;100.00;100942.91;5021517;28;20485;-57
2022/07/31 01:37:39;;;;;;;0.30;0.20;;;;;;;18.36;100.00;100948.28;5029135;28;20498;-55
2022/07/31 01:40:10;;;;;;;3.20;0.00;;;;;;;18.36;100.00;100952.84;5021829;28;20029;-57
2022/07/31 01:42:39;;;;;;;0.35;0.10;;;;;;;18.37;100.00;100946.41;5017433;28;20025;-52
2022/07/31 01:45:09;;;;;;;2.28;0.10;;;;;;;18.37;100.00;100949.91;5017770;28;20101;-53
2022/07/31 01:47:36;;;;;;;0.68;0.20;;;;;;;18.35;100.00;100946.63;5013000;28;20395;-53
2022/07/31 01:50:04;;;;;;;2.47;0.00;;;;;;;18.33;100.00;100951.44;5019415;28;20025;-49
2022/07/31 01:52:31;;;;;;;0.55;0.55;;;;;;;18.32;100.00;100941.72;5027808;28;20048;-53
2022/07/31 01:54:58;;;;;;;0.55;0.05;;;;;;;18.30;100.00;100941.97;5023564;28;20036;-52
2022/07/31 01:57:25;;;;;;;0.22;0.00;;;;;;;18.29;100.00;100942.19;5023999;28;20025;-54
2022/07/31 01:59:55;;;;;;;0.65;0.08;;;;;;;18.27;100.00;100938.91;5030348;28;20446;-54
2022/07/31 02:02:21;;;;;;;0.00;0.00;;;;;;;18.26;100.00;100942.66;5024837;28;20034;-51
2022/07/31 02:04:47;;;;;;;0.15;0.10;;;;;;;18.26;100.00;100932.72;5024405;28;20348;-57
2022/07/31 02:07:14;;;;;;;0.10;0.10;;;;;;;18.24;100.00;100932.16;5029807;28;20021;-55
2022/07/31 02:09:42;;;;;;;1.55;0.03;;;;;;;18.24;100.00;100924.09;5030486;28;20169;-55
2022/07/31 02:12:10;;;;;;;0.50;0.00;;;;;;;18.24;100.00;100928.66;5019449;28;20044;-52
2022/07/31 02:14:39;;;;;;;0.68;0.10;;;;;;;18.24;100.00;100925.97;5017869;28;20032;-52
2022/07/31 02:17:06;;;;;;;0.17;0.00;;;;;;;18.23;100.00;100919.78;5025176;28;20032;-53
2022/07/31 02:19:33;;;;;;;0.10;0.10;;;;;;;18.22;100.00;100917.31;5029581;28;20035;-53
2022/07/31 02:21:59;;;;;;;1.00;0.10;;;;;;;18.21;100.00;100921.88;5018206;28;20119;-52
2022/07/31 02:24:25;;;;;;;1.20;0.65;;;;;;;18.21;100.00;100915.69;5022990;28;20856;-48
2022/07/31 02:26:51;;;;;;;1.10;0.25;;;;;;;18.19;100.00;100923.97;5028176;28;20030;-54
2022/07/31 02:29:20;;;;;;;0.35;0.10;;;;;;;18.19;100.00;100933.88;5021791;28;20351;-56
2022/07/31 02:31:49;;;;;;;0.52;0.40;;;;;;;18.17;100.00;100927.94;5025765;28;20029;-56
2022/07/31 02:34:16;;;;;;;0.38;0.10;;;;;;;18.17;100.00;100920.69;5029076;28;20153;-56
2022/07/31 02:36:44;;;;;;;1.80;0.25;;;;;;;18.17;100.00;100922.56;5023816;28;20554;-55
2022/07/31 02:39:10;;;;;;;0.45;0.20;;;;;;;18.17;100.00;100922.56;5026620;28;20089;-54
2022/07/31 02:41:36;;;;;;;0.45;0.43;;;;;;;18.17;100.00;100919.88;5022715;28;20041;-57
2022/07/31 02:44:03;;;;;;;0.30;0.30;;;;;;;18.17;100.00;100918.00;5022978;28;20087;-54
2022/07/31 02:46:28;;;;;;;0.20;0.15;;;;;;;18.20;100.00;100924.78;5018253;28;20140;-54
2022/07/31 02:48:55;;;;;;;0.38;0.20;;;;;;;18.19;100.00;100915.91;5024907;28;20415;-46
2022/07/31 02:51:22;;;;;;;0.10;0.10;;;;;;;18.19;100.00;100915.09;5031107;28;20099;-50
2022/07/31 02:53:48;;;;;;;1.27;0.22;;;;;;;18.20;100.00;100919.41;5012484;28;20022;-54
2022/07/31 02:56:15;;;;;;;0.60;0.30;;;;;;;18.19;100.00;100915.91;5026549;28;20031;-51
2022/07/31 02:58:41;;;;;;;1.40;0.10;;;;;;;18.21;100.00;100905.78;5029700;28;20072;-55
2022/07/31 03:01:07;;;;;;;0.63;0.10;;;;;;;18.22;100.00;100914.63;5015193;28;20034;-53
2022/07/31 03:03:33;;;;;;;0.68;0.13;;;;;;;18.23;100.00;100914.41;5026022;28;20102;-50
2022/07/31 03:05:58;;;;;;;1.20;0.57;;;;;;;18.24;100.00;100917.91;5021369;28;20052;-47
2022/07/31 03:08:24;;;;;;;0.75;0.75;;;;;;;18.25;100.00;100912.31;5027727;28;20061;-54
2022/07/31 03:10:49;;;;;;;0.85;0.28;;;;;;;18.26;100.00;100911.25;5012829;28;20046;-47
2022/07/31 03:13:17;;;;;;;0.40;0.20;;;;;;;18.28;100.00;100908.38;5023039;28;20025;-49
2022/07/31 03:15:44;;;;;;;0.93;0.30;;;;;;;18.28;100.00;100909.19;5025635;28;20045;-53
2022/07/31 03:18:13;;;;;;;0.40;0.40;;;;;;;18.28;100.00;100905.69;5028970;28;20052;-56
2022/07/31 03:20:40;;;;;;;0.22;0.17;;;;;;;18.28;100.00;100900.31;5026206;28;20291;-55
2022/07/31 03:23:06;;;;;;;0.10;0.10;;;;;;;18.27;100.00;100898.66;5025104;28;20112;-53
2022/07/31 03:25:32;;;;;;;3.50;0.10;;;;;;;18.26;100.00;100895.16;5026479;28;20120;-48
2022/07/31 03:27:59;;;;;;;1.63;0.30;;;;;;;18.29;100.00;100883.94;5016799;28;20034;-53
2022/07/31 03:30:24;;;;;;;0.10;0.10;;;;;;;18.30;100.00;100884.75;5025695;28;20478;-55
2022/07/31 03:32:55;;;;;;;2.42;0.22;;;;;;;18.30;100.00;100880.25;5019971;28;20029;-49
2022/07/31 03:35:21;;;;;;;0.20;0.10;;;;;;;18.32;100.00;100877.31;5023535;28;20029;-49
2022/07/31 03:37:46;;;;;;;1.95;0.22;;;;;;;18.32;100.00;100888.03;5022900;28;20037;-49
2022/07/31 03:40:12;;;;;;;0.30;0.30;;;;;;;18.33;100.00;100887.00;5027058;28;20435;-53
2022/07/31 03:42:38;;;;;;;0.30;0.30;;;;;;;18.33;100.00;100875.44;5020295;28;20433;-50
2022/07/31 03:45:05;;;;;;;0.47;0.20;;;;;;;18.33;100.00;100883.50;5016362;28;20402;-54
2022/07/31 03:47:30;;;;;;;1.00;0.10;;;;;;;18.32;100.00;100877.31;5019361;28;20017;-55
2022/07/31 03:49:56;;;;;;;0.22;0.22;;;;;;;18.34;100.00;100880.59;5020119;28;20321;-55
2022/07/31 03:52:23;;;;;;;0.35;0.10;;;;;;;18.33;100.00;100868.22;5023661;28;20029;-53
2022/07/31 03:54:48;;;;;;;0.30;0.20;;;;;;;18.36;100.00;100866.94;5026475;28;20027;-48
2022/07/31 03:57:15;;;;;;;1.27;0.25;;;;;;;18.37;100.00;100864.00;5027659;28;20098;-51
2022/07/31 03:59:42;;;;;;;0.30;0.30;;;;;;;18.38;100.00;100865.66;5026217;28;20065;-48
2022/07/31 04:02:09;;;;;;;0.38;0.20;;;;;;;18.38;100.00;100865.66;5029782;28;20458;-55
2022/07/31 04:04:36;;;;;;;0.00;0.00;;;;;;;18.39;100.00;100866.47;5023086;28;20451;-56
2022/07/31 04:07:01;;;;;;;1.35;0.45;;;;;;;18.38;100.00;100864.81;5017506;28;20097;-56
2022/07/31 04:09:28;;;;;;;0.57;0.13;;;;;;;18.39;100.00;100864.59;5024794;28;20116;-53
2022/07/31 04:11:53;;;;;;;0.30;0.10;;;;;;;18.38;100.00;100854.91;5024649;28;20028;-51
2022/07/31 04:14:18;;;;;;;0.35;0.10;;;;;;;18.39;100.00;100859.22;5020583;28;20033;-55
2022/07/31 04:16:44;;;;;;;0.10;0.00;;;;;;;18.38;100.00;100872.88;5019957;28;20083;-55
2022/07/31 04:19:09;;;;;;;1.85;0.20;;;;;;;18.37;100.00;100864.00;5018589;28;20079;-57
2022/07/31 04:21:34;;;;;;;0.65;0.30;;;;;;;18.37;100.00;100860.50;5021842;28;20191;-54
2022/07/31 04:24:00;;;;;;;0.22;0.00;;;;;;;18.37;100.00;100869.38;5015894;28;20052;-53
2022/07/31 04:26:27;;;;;;;0.52;0.10;;;;;;;18.37;100.00;100865.88;5023901;28;20036;-54
2022/07/31 04:28:52;;;;;;;2.28;0.30;;;;;;;18.38;100.00;100868.34;5022571;28;20086;-48
2022/07/31 04:31:18;;;;;;;0.55;0.20;;;;;;;18.39;100.00;100867.28;5023328;28;20109;-52
2022/07/31 04:33:43;;;;;;;2.00;0.35;;;;;;;18.39;100.00;100872.66;5019379;28;20053;-55
2022/07/31 04:36:09;;;;;;;1.75;0.32;;;;;;;18.39;100.00;100871.84;5023664;28;20037;-58
2022/07/31 04:38:35;;;;;;;1.20;0.10;;;;;;;18.40;100.00;100868.09;5026968;28;20029;-55
2022/07/31 04:41:00;;;;;;;0.80;0.30;;;;;;;18.39;100.00;100869.97;5025104;28;20069;-53
2022/07/31 04:43:26;;;;;;;1.08;0.20;;;;;;;18.39;100.00;100867.28;5016803;28;20029;-48
2022/07/31 04:45:51;;;;;;;1.30;0.30;;;;;;;18.40;100.00;100871.59;5029054;28;20057;-49
2022/07/31 04:48:16;;;;;;;0.20;0.20;;;;;;;18.41;100.00;100865.19;5024420;28;20037;-54
2022/07/31 04:50:42;;;;;;;1.75;0.55;;;;;;;18.41;100.00;100862.50;5013744;28;20386;-51
2022/07/31 04:53:07;;;;;;;1.92;0.47;;;;;;;18.42;100.00;100864.13;5013567;28;20096;-54
2022/07/31 04:55:32;;;;;;;0.40;0.40;;;;;;;18.41;100.00;100861.69;5017853;28;20026;-47
2022/07/31 04:57:58;;;;;;;0.57;0.30;;;;;;;18.42;100.00;100860.63;5012456;28;20064;-45
2022/07/31 05:00:23;;;;;;;0.30;0.30;;;;;;;18.42;100.00;100861.44;5023299;28;20549;-52
2022/07/31 05:02:49;;;;;;;1.85;1.17;;;;;;;18.43;100.00;100854.19;5024756;28;20096;-54
2022/07/31 05:05:16;;;;;;;0.70;0.35;;;;;;;18.42;100.00;100860.63;5018446;28;20032;-44
2022/07/31 05:07:41;;;;;;;0.47;0.20;;;;;;;18.41;100.00;100862.50;5022700;28;20480;-54
2022/07/31 05:10:07;;;;;;;1.95;0.13;;;;;;;18.42;100.00;100863.31;5021246;28;20133;-53
2022/07/31 05:12:32;;;;;;;0.95;0.30;;;;;;;18.42;100.00;100858.75;5021049;28;20378;-56
2022/07/31 05:14:58;;;;;;;4.00;0.20;;;;;;;18.43;100.00;100856.88;5026059;28;20041;-48
2022/07/31 05:17:23;;;;;;;2.15;0.50;;;;;;;18.46;100.00;100867.19;5028488;28;20021;-56
2022/07/31 05:19:48;;;;;;;0.20;0.20;;;;;;;18.48;100.00;100865.88;5023290;28;20494;-55
2022/07/31 05:22:14;;;;;;;0.10;0.10;;;;;;;18.51;100.00;100864.59;5021584;28;20514;-54
2022/07/31 05:24:40;;;;;;;0.65;0.20;;;;;;;18.55;100.00;100860.38;5027821;28;20029;-54
2022/07/31 05:27:05;;;;;;;0.30;0.30;;;;;;;18.63;100.00;100859.22;5022299;28;20037;-58
2022/07/31 05:29:32;;;;;;;0.25;0.20;;;;;;;18.67;100.00;100863.88;5023425;28;20033;-53
2022/07/31 05:31:57;;;;;;;0.10;0.10;;;;;;;18.72;100.00;100855.94;5027412;28;20041;-51
2022/07/31 05:34:22;;;;;;;1.08;0.38;;;;;;;18.81;100.00;100859.09;5021964;28;20140;-52
2022/07/31 05:36:49;;;;;;;0.93;0.30;;;;;;;18.89;100.00;100855.22;5022185;28;20022;-53
2022/07/31 05:39:16;;;;;;;2.20;0.30;;;;;;;18.95;100.00;100854.28;5024922;28;20018;-53
2022/07/31 05:41:41;;;;;;;1.17;0.30;;;;;;;18.99;100.00;100855.44;5018178;28;20033;-57
2022/07/31 05:44:07;;;;;;;0.25;0.25;;;;;;;19.03;100.00;100853.13;5023517;28;20037;-43
2022/07/31 05:46:32;;;;;;;1.70;0.80;;;;;;;19.00;100.00;100843.66;5011041;28;20025;-54
2022/07/31 05:48:58;;;;;;;3.17;0.70;;;;;;;18.96;100.00;100834.41;5027054;28;20021;-57
2022/07/31 05:51:23;;;;;;;0.25;0.20;;;;;;;18.98;100.00;100842.25;5024849;28;20034;-57
2022/07/31 05:53:48;;;;;;;0.13;0.13;;;;;;;19.02;100.00;100840.72;5023500;28;20025;-56
2022/07/31 05:56:14;;;;;;;0.63;0.32;;;;;;;19.07;100.00;100840.81;5025530;28;20033;-55
2022/07/31 05:58:39;;;;;;;1.20;0.75;;;;;;;19.08;100.00;100847.84;5016805;28;20049;-56
2022/07/31 06:01:05;;;;;;;0.20;0.13;;;;;;;19.01;100.00;100841.78;5024892;28;20102;-57
2022/07/31 06:03:34;;;;;;;1.13;0.40;;;;;;;18.97;100.00;100846.78;5026953;28;20087;-57
2022/07/31 06:06:01;;;;;;;0.85;0.40;;;;;;;18.93;100.00;100851.03;5013989;28;20099;-54
2022/07/31 06:08:27;;;;;;;2.63;0.40;;;;;;;18.90;100.00;100844.25;5013783;28;20026;-52
2022/07/31 06:10:53;;;;;;;2.60;0.40;;;;;;;18.86;100.00;100851.16;5025546;28;20483;-60
2022/07/31 06:13:23;;;;;;;0.63;0.43;;;;;;;18.84;100.00;100847.88;5020713;28;20042;-56
2022/07/31 06:15:48;;;;;;;4.00;0.35;;;;;;;18.88;100.00;100851.72;5027744;28;20537;-56
2022/07/31 06:18:14;;;;;;;1.00;0.30;;;;;;;18.92;100.00;100850.22;5019792;28;20496;-58
2022/07/31 06:20:40;;;;;;;2.28;0.55;;;;;;;18.98;100.00;100855.69;5020182;28;20045;-48
2022/07/31 06:23:05;;;;;;;1.10;0.50;;;;;;;18.99;100.00;100849.25;5024417;28;20490;-54
2022/07/31 06:25:30;;;;;;;0.30;0.30;;;;;;;18.94;100.00;100848.09;5017166;28;20178;-49
2022/07/31 06:27:56;;;;;;;1.75;0.10;;;;;;;18.93;100.00;100851.84;5015839;28;20025;-48
2022/07/31 06:30:21;;;;;;;0.75;0.20;;;;;;;19.01;100.00;100847.97;5023465;28;20104;-53
2022/07/31 06:32:47;;;;;;;2.58;0.50;;;;;;;19.13;100.00;100847.94;5019598;28;20033;-46
2022/07/31 06:35:12;;;;;;;2.35;0.38;;;;;;;19.24;100.00;100840.88;5028687;28;20569;-54
2022/07/31 06:37:37;;;;;;;2.35;0.70;;;;;;;19.39;100.00;100833.13;5028222;28;20030;-56
2022/07/31 06:40:03;;;;;;;1.23;0.25;;;;;;;19.39;100.00;100842.00;5030942;28;20502;-53
2022/07/31 06:42:29;;;;;;;2.60;0.32;;;;;;;19.41;100.00;100836.34;5023549;28;20505;-47
2022/07/31 06:44:54;;;;;;;0.43;0.22;;;;;;;19.35;100.00;100843.50;5022738;28;20390;-54
2022/07/31 06:47:23;;;;;;;0.75;0.22;;;;;;;19.31;100.00;100844.22;5023219;28;20470;-47
2022/07/31 06:49:49;;;;;;;0.80;0.30;;;;;;;19.25;100.00;100843.31;5025825;28;20434;-57
2022/07/31 06:52:14;;;;;;;1.27;0.20;;;;;;;19.22;100.00;100843.00;5029670;28;20037;-52
2022/07/31 06:54:40;;;;;;;1.40;0.25;;;;;;;19.14;100.00;100849.56;5020552;28;20041;-50
2022/07/31 06:57:06;;;;;;;0.73;0.52;;;;;;;19.03;100.00;100864.66;5023937;28;20028;-48
2022/07/31 06:59:31;;;;;;;0.57;0.50;;;;;;;18.92;100.00;100854.75;5020140;28;20136;-57
2022/07/31 07:01:57;;;;;;;0.10;0.10;;;;;;;18.91;100.00;100853.94;5021840;28;20025;-52
2022/07/31 07:04:22;;;;;;;3.75;0.85;;;;;;;18.99;100.00;100863.50;5022510;28;20033;-53
2022/07/31 07:06:47;;;;;;;1.05;0.90;;;;;;;19.06;100.00;100848.06;5028216;28;20109;-54
2022/07/31 07:09:13;;;;;;;1.08;0.70;;;;;;;19.12;100.00;100848.97;5023170;28;20056;-52
2022/07/31 07:11:39;;;;;;;1.70;0.57;;;;;;;19.08;100.00;100843.28;5023278;28;20114;-49
2022/07/31 07:14:04;;;;;;;0.40;0.32;;;;;;;19.02;100.00;100843.41;5027589;28;20368;-49
2022/07/31 07:16:30;;;;;;;3.33;0.32;;;;;;;19.09;100.00;100854.84;5019899;28;20041;-57
2022/07/31 07:18:55;;;;;;;0.35;0.35;;;;;;;19.08;100.00;100855.91;5020430;28;20428;-51
2022/07/31 07:21:20;;;;;;;1.40;0.25;;;;;;;19.08;100.00;100848.66;5026546;28;20056;-52
2022/07/31 07:23:46;;;;;;;2.67;0.65;;;;;;;19.08;100.00;100861.28;5025615;28;20127;-45
2022/07/31 07:26:11;;;;;;;0.63;0.30;;;;;;;19.03;100.00;100845.06;5025103;28;20120;-51
2022/07/31 07:28:37;;;;;;;0.70;0.35;;;;;;;19.06;100.00;100845.38;5013795;28;20390;-52
2022/07/31 07:31:03;;;;;;;1.48;0.60;;;;;;;19.08;100.00;100845.97;5017179;28;20364;-50
2022/07/31 07:33:30;;;;;;;0.47;0.47;;;;;;;19.09;100.00;100838.72;5016593;28;20537;-45
2022/07/31 07:35:55;;;;;;;0.70;0.20;;;;;;;19.12;100.00;100840.91;5024772;28;20040;-52
2022/07/31 07:38:21;;;;;;;1.50;0.30;;;;;;;19.17;100.00;100841.81;5023326;28;20413;-50
2022/07/31 07:40:47;;;;;;;0.30;0.28;;;;;;;19.18;100.00;100842.66;5023956;28;20029;-50
2022/07/31 07:43:12;;;;;;;0.63;0.32;;;;;;;19.18;100.00;100848.84;5012795;28;20029;-52
2022/07/31 07:45:38;;;;;;;2.10;0.20;;;;;;;19.24;100.00;100855.13;5028633;28;20108;-47
2022/07/31 07:48:05;;;;;;;2.95;0.38;;;;;;;19.28;100.00;100842.84;5025363;28;20032;-48
2022/07/31 07:50:30;;;;;;;1.35;0.32;;;;;;;19.35;100.00;100837.31;5027390;28;20091;-50
2022/07/31 07:52:56;;;;;;;0.10;0.10;;;;;;;19.45;100.00;100834.00;5018650;28;20033;-50
2022/07/31 07:55:21;;;;;;;0.17;0.13;;;;;;;19.50;100.00;100842.19;5024900;28;20033;-49
2022/07/31 07:57:46;;;;;;;0.88;0.17;;;;;;;19.45;100.00;100832.13;5021387;28;20036;-57
2022/07/31 08:00:12;;;;;;;0.60;0.38;;;;;;;19.43;100.00;100831.56;5020133;28;20430;-53
2022/07/31 08:02:38;;;;;;;0.98;0.17;;;;;;;19.44;100.00;100830.50;5028760;28;20365;-55
2022/07/31 08:05:05;;;;;;;0.20;0.10;;;;;;;19.47;100.00;100819.28;5028625;28;20061;-50
2022/07/31 08:07:35;;;;;;;3.15;0.88;;;;;;;19.55;100.00;100820.75;5022056;28;20095;-47
2022/07/31 08:10:01;;;;;;;0.20;0.20;;;;;;;19.67;100.00;100821.53;5023080;28;20068;-49
2022/07/31 08:12:27;;;;;;;1.80;0.30;;;;;;;19.66;100.00;100811.78;5026409;28;20419;-54
2022/07/31 08:14:52;;;;;;;2.13;0.30;;;;;;;19.64;100.00;100821.97;5023362;28;20029;-50
2022/07/31 08:17:18;;;;;;;0.20;0.20;;;;;;;19.72;100.00;100829.69;5023911;28;20068;-49
2022/07/31 08:19:44;;;;;;;0.30;0.20;;;;;;;19.67;100.00;100826.06;5019870;28;20029;-56
2022/07/31 08:22:10;;;;;;;0.45;0.40;;;;;;;19.73;100.00;100827.81;5026585;28;20033;-51
2022/07/31 08:24:35;;;;;;;2.28;0.20;;;;;;;19.74;100.00;100829.44;5023734;28;20534;-54
2022/07/31 08:29:45;;;;;;;0.90;0.30;;;;;;;20.05;100.00;100825.38;5019734;28;20103;-52
2022/07/31 08:32:11;;;;;;;0.10;0.00;;;;;;;20.20;100.00;100828.28;5019774;28;20153;-49
2022/07/31 08:34:37;;;;;;;0.73;0.08;;;;;;;20.32;100.00;100816.63;5022821;28;20030;-50
2022/07/31 08:37:03;;;;;;;0.10;0.10;;;;;;;20.44;100.00;100828.09;5020895;28;20045;-48
2022/07/31 08:39:29;;;;;;;0.10;0.10;;;;;;;20.49;100.00;100823.59;5019892;28;20132;-55
2022/07/31 08:41:54;;;;;;;0.05;0.00;;;;;;;20.53;100.00;100810.44;5018287;28;20030;-54
2022/07/31 08:44:20;;;;;;;3.30;0.10;;;;;;;20.44;100.00;100809.22;5025029;28;20037;-52
2022/07/31 08:46:46;;;;;;;0.80;0.20;;;;;;;20.43;100.00;100829.97;5019784;28;20041;-47
2022/07/31 08:49:15;;;;;;;0.63;0.10;;;;;;;20.39;100.00;100830.72;5027256;28;20029;-49
2022/07/31 08:51:43;;;;;;;0.13;0.13;;;;;;;20.34;100.00;100823.41;5024387;28;20120;-51
2022/07/31 08:54:09;;;;;;;0.10;0.10;;;;;;;20.54;100.00;100830.13;5017995;28;20037;-51
2022/07/31 08:56:39;;;;;;;0.15;0.00;;;;;;;20.74;100.00;100816.13;5015510;28;20112;-46
2022/07/31 08:59:05;;;;;;;0.35;0.00;;;;;;;20.61;100.00;100823.50;5024314;28;20036;-49
2022/07/31 09:01:35;;;;;;;3.20;0.00;;;;;;;20.56;100.00;100820.75;5028994;28;20045;-51
2022/07/31 09:04:01;;;;;;;0.10;0.08;;;;;;;20.63;100.00;100820.59;5028376;28;20534;-52
2022/07/31 09:06:26;;;;;;;0.50;0.15;;;;;;;20.66;100.00;100814.69;5019549;28;20171;-46
2022/07/31 09:08:54;;;;;;;1.02;0.00;;;;;;;20.52;100.00;100819.56;5016806;28;20108;-51
2022/07/31 09:11:20;;;;;;;0.00;0.00;;;;;;;20.30;100.00;100816.06;5021660;28;20524;-49
2022/07/31 09:13:56;;;;;;;0.00;0.00;;;;;;;20.35;100.00;100810.75;5024961;28;20046;-54
2022/07/31 09:16:22;;;;;;;1.45;0.00;;;;;;;20.40;100.00;100810.81;5015703;28;20128;-50
2022/07/31 09:19:02;;;;;;;0.00;0.00;;;;;;;20.41;100.00;100818.63;5027809;28;20025;-51
2022/07/31 09:21:44;;;;;;;0.00;0.00;;;;;;;20.45;100.00;100819.78;5018629;28;20509;-49
2022/07/31 09:24:13;;;;;;;1.75;0.10;;;;;;;20.53;100.00;100805.06;5022864;28;20435;-51
2022/07/31 09:26:39;;;;;;;0.10;0.00;;;;;;;20.63;100.00;100815.19;5021024;28;20608;-55
2022/07/31 09:29:11;;;;;;;1.85;0.00;;;;;;;20.58;100.00;100813.25;5025290;28;20034;-51
2022/07/31 09:31:37;;;;;;;0.00;0.00;;;;;;;20.61;100.00;100809.22;5019117;28;20033;-51
2022/07/31 09:34:04;;;;;;;0.28;0.00;;;;;;;20.61;100.00;100812.75;5021889;28;20025;-58
2022/07/31 09:36:30;;;;;;;0.75;0.00;;;;;;;20.62;100.00;100813.53;5024909;28;20026;-49
2022/07/31 09:38:55;;;;;;;0.55;0.00;;;;;;;20.72;100.00;100813.69;5022575;28;20162;-59
2022/07/31 09:41:22;;;;;;;0.00;0.00;;;;;;;20.72;100.00;100815.56;5023974;28;20116;-57
2022/07/31 09:44:14;;;;;;;0.20;0.00;;;;;;;20.69;100.00;100820.38;5026081;28;20059;-57
2022/07/31 09:46:47;;;;;;;0.03;0.00;;;;;;;20.78;100.00;100823.47;5013627;28;20132;-46
2022/07/31 09:49:13;;;;;;;0.10;0.10;;;;;;;20.90;100.00;100818.75;5025478;28;20103;-45
2022/07/31 09:51:40;;;;;;;0.10;0.00;;;;;;;21.08;100.00;100808.72;5015248;28;20060;-48
2022/07/31 09:54:06;;;;;;;0.25;0.10;;;;;;;21.22;100.00;100815.34;5025335;28;20265;-48
2022/07/31 09:56:33;;;;;;;0.00;0.00;;;;;;;21.46;100.00;100802.41;5017707;28;20223;-49
2022/07/31 09:58:58;;;;;;;0.10;0.00;;;;;;;21.69;100.00;100801.25;5021431;28;20041;-56
2022/07/31 10:01:24;;;;;;;0.45;0.00;;;;;;;21.84;100.00;100803.28;5027388;28;20029;-50
2022/07/31 10:03:51;;;;;;;0.08;0.08;;;;;;;21.78;100.00;100798.88;5019442;28;20034;-53
2022/07/31 10:06:19;;;;;;;0.00;0.00;;;;;;;21.78;100.00;100809.69;5023573;28;20521;-55
2022/07/31 10:08:45;;;;;;;1.15;0.00;;;;;;;21.74;100.00;100816.69;5031428;28;20358;-48
2022/07/31 10:11:12;;;;;;;0.00;0.00;;;;;;;21.64;100.00;100803.91;5019100;28;20294;-52
2022/07/31 10:13:42;;;;;;;3.95;0.00;;;;;;;21.67;100.00;100806.09;5028118;28;20033;-59
2022/07/31 10:16:08;;;;;;;0.00;0.00;;;;;;;21.61;100.00;100812.53;5028878;28;20038;-50
2022/07/31 10:18:36;;;;;;;0.00;0.00;;;;;;;;;;5026200;28;20514;-50
2022/07/31 10:21:04;;;;;;;0.00;0.00;;;;;;;21.58;100.00;100796.81;5016890;28;20100;-51
2022/07/31 10:23:32;;;;;;;0.13;0.00;;;;;;;21.62;100.00;100808.75;5025032;28;20538;-50
2022/07/31 10:25:59;;;;;;;0.00;0.00;;;;;;;21.65;100.00;100807.41;5017909;28;20212;-49
2022/07/31 10:28:28;;;;;;;0.00;0.00;;;;;;;21.62;100.00;100807.94;5023192;28;20026;-43
2022/07/31 10:30:54;;;;;;;0.20;0.00;;;;;;;21.50;100.00;100813.47;5013346;28;20426;-48
2022/07/31 10:33:20;;;;;;;0.00;0.00;;;;;;;21.30;100.00;100822.19;5029423;28;20037;-50
2022/07/31 10:36:07;;;;;;;0.43;0.00;;;;;;;21.11;100.00;100819.00;5020486;28;20025;-57
2022/07/31 10:38:39;;;;;;;0.10;0.00;;;;;;;21.16;100.00;100826.31;5029046;28;20030;-49
2022/07/31 10:41:20;;;;;;;0.00;0.00;;;;;;;21.17;100.00;100818.00;5024763;28;20038;-55
2022/07/31 10:43:59;;;;;;;0.35;0.00;;;;;;;21.17;100.00;100823.38;5025814;28;20095;-51
2022/07/31 10:46:29;;;;;;;1.48;0.00;;;;;;;21.23;100.00;100818.84;5022995;28;20045;-59
2022/07/31 10:48:55;;;;;;;0.00;0.00;;;;;;;21.26;100.00;100821.03;5020460;28;20109;-48
2022/07/31 10:51:21;;;;;;;0.20;0.00;;;;;;;21.13;100.00;100822.25;5021962;28;20522;-56
2022/07/31 10:54:01;;;;;;;0.00;0.00;;;;;;;21.22;100.00;100818.03;5023907;28;20025;-57
2022/07/31 10:56:27;;;;;;;0.65;0.00;;;;;;;21.45;100.00;100826.91;5020933;28;20040;-59
2022/07/31 10:58:56;;;;;;;0.17;0.00;;;;;;;21.75;100.00;100796.72;5028880;28;20022;-55
2022/07/31 11:01:24;;;;;;;0.00;0.00;;;;;;;22.25;100.00;100803.56;5020784;28;20557;-57
2022/07/31 11:03:57;;;;;;;0.00;0.00;;;;;;;22.46;100.00;100795.56;5021839;28;20079;-50
2022/07/31 11:06:25;;;;;;;0.00;0.00;;;;;;;22.57;100.00;100789.97;5018941;28;20038;-47
2022/07/31 11:08:52;;;;;;;0.00;0.00;;;;;;;22.62;100.00;100792.69;5025199;28;20375;-54
2022/07/31 11:11:30;;;;;;;2.65;0.00;;;;;;;22.62;100.00;100787.28;5017083;28;20060;-58
2022/07/31 11:13:56;;;;;;;0.00;0.00;;;;;;;22.70;100.00;100779.75;5020663;28;20034;-60
2022/07/31 11:16:22;;;;;;;0.85;0.00;;;;;;;22.59;100.00;100790.53;5024616;28;20446;-49
2022/07/31 11:19:02;;;;;;;0.00;0.00;;;;;;;22.72;100.00;100801.91;5029167;28;20040;-55